createdAt,value
2017-09-01T03:31:20.575Z,69.00
2017-09-01T03:33:48.222Z,69.40
2017-09-01T03:36:15.809Z,69.50
2017-09-01T03:38:43.871Z,69.00
2017-09-01T03:41:11.459Z,68.70
2017-09-01T03:43:39.148Z,68.50
2017-09-01T03:46:07.152Z,68.40
2017-09-01T03:48:34.756Z,68.30
2017-09-01T03:51:02.427Z,68.50
2017-09-01T03:53:30.401Z,68.70
2017-09-01T03:55:57.997Z,68.60
2017-09-01T03:58:25.602Z,68.90
2017-09-01T04:00:53.776Z,69.20
2017-09-01T04:03:21.422Z,69.00
2017-09-01T04:05:49.041Z,69.00
2017-09-01T04:08:17.036Z,69.60
2017-09-01T04:10:44.630Z,69.30
2017-09-01T04:13:12.229Z,69.70
2017-09-01T04:15:40.220Z,69.40
2017-09-01T04:18:07.832Z,70.20
2017-09-01T04:20:35.434Z,70.20
2017-09-01T04:23:03.320Z,69.70
2017-09-01T04:25:30.946Z,69.60
2017-09-01T04:27:58.582Z,69.40
2017-09-01T04:30:26.550Z,69.50
2017-09-01T04:32:54.158Z,69.20
2017-09-01T04:35:22.239Z,69.60
2017-09-01T04:37:49.909Z,69.90
2017-09-01T04:40:17.502Z,69.60
2017-09-01T04:42:45.539Z,69.20
2017-09-01T04:45:13.134Z,69.40
2017-09-01T04:47:40.743Z,70.00
2017-09-01T04:50:08.480Z,69.80
2017-09-01T04:52:36.087Z,70.10
2017-09-01T04:55:03.685Z,69.40
2017-09-01T04:57:31.534Z,69.30
2017-09-01T04:59:59.087Z,69.30
2017-09-01T05:02:26.719Z,68.90
2017-09-01T05:04:54.650Z,69.20
2017-09-01T05:07:22.248Z,68.80
2017-09-01T05:09:49.893Z,68.60
2017-09-01T05:12:17.826Z,68.50
2017-09-01T05:14:45.528Z,68.40
2017-09-01T05:17:13.122Z,68.30
2017-09-01T05:19:41.077Z,68.00
2017-09-01T05:22:08.714Z,67.90
2017-09-01T05:24:36.318Z,67.90
2017-09-01T05:27:04.257Z,68.10
2017-09-01T05:29:31.862Z,67.80
2017-09-01T05:31:59.464Z,67.70
2017-09-01T05:34:27.189Z,68.10
2017-09-01T05:36:54.796Z,68.00
2017-09-01T05:39:22.391Z,67.80
2017-09-01T05:41:50.289Z,68.00
2017-09-01T05:44:17.896Z,67.60
2017-09-01T05:46:45.511Z,67.70
2017-09-01T05:49:13.522Z,68.30
2017-09-01T05:51:41.143Z,68.30
2017-09-01T05:54:08.748Z,68.20
2017-09-01T05:56:36.733Z,68.10
2017-09-01T05:59:04.341Z,68.70
2017-09-01T06:01:31.929Z,69.00
2017-09-01T06:03:59.702Z,68.30
2017-09-01T06:06:27.317Z,68.80
2017-09-01T06:08:54.916Z,68.80
2017-09-01T06:11:22.890Z,68.40
2017-09-01T06:13:50.532Z,68.60
2017-09-01T06:16:18.139Z,68.20
2017-09-01T06:18:46.204Z,68.30
2017-09-01T06:21:13.821Z,68.20
2017-09-01T06:23:41.437Z,68.00
2017-09-01T06:26:09.479Z,67.80
2017-09-01T06:28:37.069Z,67.80
2017-09-01T06:31:04.673Z,67.60
2017-09-01T06:33:32.632Z,67.30
2017-09-01T06:36:00.314Z,67.70
2017-09-01T06:38:27.938Z,68.20
2017-09-01T06:40:55.869Z,68.00
2017-09-01T06:43:23.562Z,68.30
2017-09-01T06:45:51.166Z,67.90
2017-09-01T06:48:19.110Z,68.20
2017-09-01T06:50:46.726Z,67.90
2017-09-01T06:53:14.336Z,67.50
2017-09-01T06:55:42.339Z,68.00
2017-09-01T06:58:09.946Z,67.80
2017-09-01T07:00:37.606Z,67.70
2017-09-01T07:03:05.629Z,68.00
2017-09-01T07:05:33.239Z,68.10
2017-09-01T07:08:00.889Z,67.90
2017-09-01T07:10:29.228Z,67.70
2017-09-01T07:12:56.837Z,67.50
2017-09-01T07:15:24.457Z,67.40
2017-09-01T07:17:52.483Z,66.00
2017-09-01T07:20:20.097Z,64.80
2017-09-01T07:22:47.726Z,64.60
2017-09-01T07:25:15.836Z,64.70
2017-09-01T07:27:43.440Z,64.90
2017-09-01T07:30:11.032Z,65.70
2017-09-01T07:32:39.113Z,65.30
2017-09-01T07:35:06.718Z,64.00
2017-09-01T07:37:34.312Z,64.10
2017-09-01T07:40:02.333Z,64.90
2017-09-01T07:42:29.934Z,64.90
2017-09-01T07:44:57.539Z,64.70
2017-09-01T07:47:25.593Z,64.80
2017-09-01T07:49:53.232Z,65.40
2017-09-01T07:52:20.870Z,64.40
2017-09-01T07:54:48.831Z,64.60
2017-09-01T07:57:16.443Z,64.50
2017-09-01T07:59:44.111Z,64.60
2017-09-01T08:02:12.188Z,64.70
2017-09-01T08:04:39.805Z,65.00
2017-09-01T08:07:07.442Z,64.90
2017-09-01T08:09:35.483Z,65.20
2017-09-01T08:12:03.289Z,64.30
2017-09-01T08:14:30.894Z,64.30
2017-09-01T08:16:58.950Z,64.20
2017-09-01T08:19:26.712Z,63.50
2017-09-01T08:21:54.315Z,63.40
2017-09-01T08:24:22.362Z,63.30
2017-09-01T08:26:49.991Z,63.40
2017-09-01T08:29:17.601Z,63.70
2017-09-01T08:31:45.686Z,63.60
2017-09-01T08:34:13.728Z,63.50
2017-09-01T08:36:41.572Z,63.70
2017-09-01T08:39:09.532Z,64.10
2017-09-01T08:41:37.202Z,63.70
2017-09-01T08:44:05.104Z,63.30
2017-09-01T08:46:33.182Z,63.40
2017-09-01T08:49:00.806Z,63.10
2017-09-01T08:51:28.413Z,63.90
2017-09-01T08:53:56.466Z,64.60
2017-09-01T08:56:24.100Z,64.30
2017-09-01T08:58:51.885Z,63.90
2017-09-01T09:01:19.862Z,64.40
2017-09-01T09:03:47.488Z,64.20
2017-09-01T09:06:15.102Z,64.40
2017-09-01T09:08:43.085Z,64.40
2017-09-01T09:11:10.701Z,64.60
2017-09-01T09:13:38.321Z,65.00
2017-09-01T09:16:06.262Z,65.00
2017-09-01T09:18:33.861Z,64.60
2017-09-01T09:21:01.535Z,64.10
2017-09-01T09:23:29.546Z,64.10
2017-09-01T09:25:57.252Z,64.20
2017-09-01T09:28:24.885Z,64.20
2017-09-01T09:30:54.105Z,64.60
2017-09-01T09:33:21.824Z,64.50
2017-09-01T09:35:49.568Z,64.30
2017-09-01T09:38:17.715Z,64.30
2017-09-01T09:40:45.375Z,64.40
2017-09-01T09:43:13.013Z,64.90
2017-09-01T09:45:40.983Z,64.90
2017-09-01T09:48:08.590Z,64.90
2017-09-01T09:50:36.249Z,64.40
2017-09-01T09:53:04.210Z,64.60
2017-09-01T09:55:31.818Z,64.30
2017-09-01T09:57:59.413Z,64.00
2017-09-01T10:00:27.432Z,64.00
2017-09-01T10:02:55.042Z,64.50
2017-09-01T10:05:22.653Z,64.00
2017-09-01T10:07:50.734Z,64.20
2017-09-01T10:10:18.348Z,63.80
2017-09-01T10:12:46.083Z,64.00
2017-09-01T10:15:14.117Z,64.30
2017-09-01T10:17:42.171Z,64.10
2017-09-01T10:20:10.454Z,64.60
2017-09-01T10:22:38.409Z,63.90
2017-09-01T10:25:06.002Z,64.20
2017-09-01T10:27:33.610Z,64.50
2017-09-01T10:30:01.630Z,64.30
2017-09-01T10:32:29.231Z,64.00
2017-09-01T10:34:56.849Z,63.70
2017-09-01T10:37:24.825Z,64.10
2017-09-01T10:39:52.438Z,63.80
2017-09-01T10:42:20.059Z,64.00
2017-09-01T10:44:48.798Z,63.70
2017-09-01T10:50:26.697Z,63.10
2017-09-01T10:53:06.126Z,63.80
2017-09-01T10:55:45.821Z,64.10
2017-09-01T10:58:25.710Z,64.40
2017-09-01T11:00:53.924Z,64.40
2017-09-01T11:03:21.654Z,64.60
2017-09-01T11:05:49.269Z,64.20
2017-09-01T11:08:17.359Z,63.30
2017-09-01T11:10:44.970Z,62.20
2017-09-01T11:13:12.577Z,63.30
2017-09-01T11:15:40.652Z,62.10
2017-09-01T11:18:08.262Z,62.80
2017-09-01T11:23:40.072Z,62.00
2017-09-01T11:26:08.061Z,62.40
2017-09-01T11:28:35.852Z,61.60
2017-09-01T11:31:03.458Z,61.70
2017-09-01T11:33:31.439Z,61.10
2017-09-01T11:35:59.069Z,61.40
2017-09-01T11:38:26.703Z,61.80
2017-09-01T11:40:54.674Z,61.00
2017-09-01T11:43:22.318Z,60.10
2017-09-01T11:45:49.926Z,60.60
2017-09-01T11:48:17.927Z,60.90
2017-09-01T11:50:45.541Z,61.20
2017-09-01T11:53:13.144Z,61.10
2017-09-01T11:55:41.151Z,59.30
2017-09-01T11:58:08.762Z,59.80
2017-09-01T12:00:36.373Z,60.20
2017-09-01T12:03:04.410Z,60.00
2017-09-01T12:05:32.075Z,61.00
2017-09-01T12:08:00.062Z,59.40
2017-09-01T12:10:28.225Z,59.70
2017-09-01T12:12:55.860Z,58.90
2017-09-01T12:15:23.480Z,58.10
2017-09-01T12:17:51.504Z,58.20
2017-09-01T12:20:19.108Z,57.10
2017-09-01T12:22:46.719Z,57.40
2017-09-01T12:25:14.687Z,56.70
2017-09-01T12:27:42.291Z,56.20
2017-09-01T12:30:09.986Z,57.30
2017-09-01T12:32:38.005Z,57.70
2017-09-01T12:35:05.652Z,56.90
2017-09-01T12:37:33.313Z,57.20
2017-09-01T12:40:01.369Z,56.70
2017-09-01T12:42:29.054Z,56.70
2017-09-01T12:44:56.661Z,56.00
2017-09-01T12:47:24.609Z,56.20
2017-09-01T12:49:52.215Z,55.70
2017-09-01T12:52:19.834Z,56.00
2017-09-01T12:54:47.868Z,57.20
2017-09-01T12:57:15.510Z,57.30
2017-09-01T12:59:43.170Z,57.80
2017-09-01T13:02:11.288Z,57.60
2017-09-01T13:04:38.896Z,58.10
2017-09-01T13:07:06.498Z,57.70
2017-09-01T13:09:34.429Z,58.50
2017-09-01T13:12:02.035Z,58.20
2017-09-01T13:14:29.661Z,58.40
2017-09-01T13:16:57.868Z,57.20
2017-09-01T13:19:25.481Z,57.50
2017-09-01T13:21:53.095Z,56.50
2017-09-01T13:24:21.141Z,55.80
2017-09-01T13:26:48.740Z,56.20
2017-09-01T13:29:16.346Z,55.60
2017-09-01T13:31:44.421Z,56.40
2017-09-01T13:34:12.075Z,57.20
2017-09-01T13:36:39.705Z,56.70
2017-09-01T13:39:07.683Z,56.50
2017-09-01T13:41:35.588Z,57.00
2017-09-01T13:44:03.236Z,56.90
2017-09-01T13:46:31.329Z,57.10
2017-09-01T13:48:58.969Z,57.10
2017-09-01T13:51:26.681Z,57.60
2017-09-01T13:53:54.709Z,56.80
2017-09-01T13:56:22.335Z,57.30
2017-09-01T13:58:50.002Z,57.70
2017-09-01T14:01:18.128Z,57.90
2017-09-01T14:03:45.753Z,57.90
2017-09-01T14:06:13.444Z,57.80
2017-09-01T14:08:41.402Z,58.30
2017-09-01T14:11:09.025Z,58.60
2017-09-01T14:13:36.629Z,58.30
2017-09-01T14:16:04.590Z,57.40
2017-09-01T14:18:32.287Z,57.50
2017-09-01T14:20:59.970Z,57.90
2017-09-01T14:23:28.023Z,58.70
2017-09-01T14:25:55.639Z,58.10
2017-09-01T14:28:23.246Z,58.20
2017-09-01T14:30:51.294Z,58.40
2017-09-01T14:33:18.908Z,58.70
2017-09-01T14:35:46.502Z,59.00
2017-09-01T14:38:14.578Z,59.20
2017-09-01T14:40:42.184Z,58.80
2017-09-01T14:43:09.788Z,58.60
2017-09-01T14:45:37.777Z,58.20
2017-09-01T14:48:05.405Z,58.10
2017-09-01T14:50:33.019Z,58.20
2017-09-01T14:53:01.083Z,58.80
2017-09-01T14:55:28.695Z,59.50
2017-09-01T14:57:56.334Z,59.20
2017-09-01T15:00:24.293Z,59.70
2017-09-01T15:02:51.923Z,59.80
2017-09-01T15:05:19.564Z,60.00
2017-09-01T15:07:47.561Z,59.10
2017-09-01T15:10:16.109Z,59.20
2017-09-01T15:12:43.743Z,58.80
2017-09-01T15:15:11.785Z,59.30
2017-09-01T15:17:39.469Z,59.60
2017-09-01T15:20:07.203Z,59.70
2017-09-01T15:22:35.441Z,60.10
2017-09-01T15:25:03.093Z,59.90
2017-09-01T15:27:30.740Z,59.80
2017-09-01T15:29:58.720Z,59.90
2017-09-01T15:32:26.347Z,60.10
2017-09-01T15:34:53.987Z,60.40
2017-09-01T15:37:22.022Z,61.20
2017-09-01T15:39:49.675Z,61.40
2017-09-01T15:42:17.305Z,61.00
2017-09-01T15:44:45.368Z,61.00
2017-09-01T15:47:12.984Z,60.60
2017-09-01T15:49:40.603Z,61.00
2017-09-01T15:52:08.586Z,60.50
2017-09-01T15:54:36.201Z,61.10
2017-09-01T15:57:03.814Z,61.00
2017-09-01T15:59:31.833Z,59.80
2017-09-01T16:01:59.455Z,59.40
2017-09-01T16:04:27.370Z,59.40
2017-09-01T16:06:55.322Z,59.70
2017-09-01T16:09:22.950Z,60.00
2017-09-01T16:11:50.610Z,59.30
2017-09-01T16:14:18.609Z,59.10
2017-09-01T16:16:46.224Z,59.30
2017-09-01T16:19:13.822Z,59.50
2017-09-01T16:21:41.920Z,59.50
2017-09-01T16:24:09.539Z,59.10
2017-09-01T16:26:37.150Z,58.70
2017-09-01T16:29:05.139Z,59.00
2017-09-01T16:31:33.160Z,59.30
2017-09-01T16:34:00.770Z,59.70
2017-09-01T16:36:28.888Z,60.20
2017-09-01T16:38:56.584Z,59.70
2017-09-01T16:41:24.234Z,59.80
2017-09-01T16:43:52.303Z,60.10
2017-09-01T16:46:19.906Z,60.50
2017-09-01T16:48:47.551Z,61.10
2017-09-01T16:51:15.527Z,60.50
2017-09-01T16:53:43.213Z,60.60
2017-09-01T16:56:10.836Z,60.50
2017-09-01T16:58:38.900Z,60.20
2017-09-01T17:01:06.520Z,60.90
2017-09-01T17:03:34.130Z,61.20
2017-09-01T17:06:02.128Z,61.50
2017-09-01T17:08:29.786Z,61.80
2017-09-01T17:10:57.382Z,61.80
2017-09-01T17:13:25.347Z,61.90
2017-09-01T17:15:53.009Z,61.60
2017-09-01T17:18:20.618Z,61.90
2017-09-01T17:20:48.676Z,61.30
2017-09-01T17:23:16.297Z,61.70
2017-09-01T17:25:43.894Z,61.90
2017-09-01T17:28:11.957Z,61.70
2017-09-01T17:30:39.572Z,62.40
2017-09-01T17:33:07.188Z,62.20
2017-09-01T17:35:35.185Z,62.40
2017-09-01T17:38:02.860Z,62.40
2017-09-01T17:40:30.492Z,62.50
2017-09-01T17:42:58.555Z,62.50
2017-09-01T17:45:26.191Z,63.40
2017-09-01T17:47:53.830Z,62.40
2017-09-01T17:50:21.912Z,61.90
2017-09-01T17:52:49.533Z,62.60
2017-09-01T17:55:17.154Z,62.70
2017-09-01T17:57:45.240Z,63.00
2017-09-01T18:00:12.871Z,63.00
2017-09-01T18:02:40.509Z,63.20
2017-09-01T18:05:08.613Z,63.20
2017-09-01T18:07:36.248Z,63.30
2017-09-01T18:10:04.531Z,63.30
2017-09-01T18:12:32.559Z,63.50
2017-09-01T18:15:00.237Z,63.70
2017-09-01T18:17:27.855Z,63.60
2017-09-01T18:19:55.840Z,63.50
2017-09-01T18:22:23.573Z,63.50
2017-09-01T18:24:51.277Z,63.70
2017-09-01T18:27:19.393Z,63.70
2017-09-01T18:29:47.107Z,63.80
2017-09-01T18:32:14.764Z,64.00
2017-09-01T18:34:43.449Z,64.00
2017-09-01T18:37:11.080Z,63.80
2017-09-01T18:39:38.788Z,63.90
2017-09-01T18:42:06.825Z,64.60
2017-09-01T18:44:34.462Z,64.10
2017-09-01T18:47:02.224Z,63.80
2017-09-01T18:49:30.193Z,64.10
2017-09-01T18:51:57.841Z,64.00
2017-09-01T18:54:25.541Z,63.90
2017-09-01T18:56:53.941Z,64.50
2017-09-01T18:59:21.584Z,64.50
2017-09-01T19:01:49.213Z,65.40
2017-09-01T19:04:17.242Z,64.30
2017-09-01T19:06:44.860Z,64.20
2017-09-01T19:09:12.486Z,64.30
2017-09-01T19:11:40.527Z,64.20
2017-09-01T19:14:08.140Z,64.20
2017-09-01T19:16:35.904Z,64.20
2017-09-01T19:19:04.020Z,64.20
2017-09-01T19:21:31.645Z,64.50
2017-09-01T19:23:59.264Z,64.10
2017-09-01T19:26:27.266Z,63.50
2017-09-01T19:28:54.885Z,63.50
2017-09-01T19:31:22.499Z,63.40
2017-09-01T19:33:50.509Z,63.70
2017-09-01T19:36:18.150Z,64.00
2017-09-01T19:38:45.783Z,63.80
2017-09-01T19:41:13.787Z,63.40
2017-09-01T19:43:41.403Z,63.50
2017-09-01T19:46:09.070Z,63.50
2017-09-01T19:48:37.126Z,63.50
2017-09-01T19:51:04.737Z,63.80
2017-09-01T19:53:32.392Z,64.20
2017-09-01T19:56:00.372Z,64.40
2017-09-01T19:58:28.982Z,64.20
2017-09-01T20:00:56.662Z,64.30
2017-09-01T20:03:25.001Z,63.80
2017-09-01T20:05:52.698Z,63.90
2017-09-01T20:08:20.335Z,63.80
2017-09-01T20:10:48.388Z,64.00
2017-09-01T20:13:16.031Z,64.40
2017-09-01T20:15:43.712Z,64.50
2017-09-01T20:18:11.799Z,64.50
2017-09-01T20:20:39.485Z,64.40
2017-09-01T20:23:07.170Z,64.50
2017-09-01T20:25:35.166Z,64.10
2017-09-01T20:28:04.864Z,64.30
2017-09-01T20:30:32.702Z,64.40
2017-09-01T20:33:00.786Z,64.60
2017-09-01T20:35:28.429Z,64.60
2017-09-01T20:37:56.894Z,65.10
2017-09-01T20:40:24.962Z,64.80
2017-09-01T20:42:52.668Z,64.10
2017-09-01T20:45:20.384Z,63.90
2017-09-01T20:47:48.502Z,63.80
2017-09-01T20:50:16.107Z,64.00
2017-09-01T20:52:43.730Z,64.10
2017-09-01T20:55:11.751Z,64.10
2017-09-01T20:57:39.361Z,64.10
2017-09-01T21:00:06.952Z,64.10
2017-09-01T21:02:35.857Z,64.00
2017-09-01T21:05:03.503Z,64.10
2017-09-01T21:07:31.153Z,64.10
2017-09-01T21:09:59.292Z,64.10
2017-09-01T21:12:26.992Z,64.00
2017-09-01T21:14:54.665Z,64.10
2017-09-01T21:17:22.742Z,63.80
2017-09-01T21:19:50.362Z,64.00
2017-09-01T21:22:17.978Z,65.20
2017-09-01T21:24:45.940Z,63.60
2017-09-01T21:27:13.675Z,63.90
2017-09-01T21:29:41.578Z,63.60
2017-09-01T21:32:09.642Z,63.60
2017-09-01T21:34:37.270Z,63.40
2017-09-01T21:37:04.893Z,63.10
2017-09-01T21:39:32.933Z,63.80
2017-09-01T21:42:00.541Z,63.30
2017-09-01T21:44:28.155Z,63.20
2017-09-01T21:46:56.116Z,62.90
2017-09-01T21:49:23.717Z,63.10
2017-09-01T21:51:51.326Z,62.50
2017-09-01T21:54:19.282Z,62.20
2017-09-01T21:56:46.897Z,62.20
2017-09-01T21:59:14.885Z,62.10
2017-09-01T22:01:42.907Z,62.40
2017-09-01T22:04:10.512Z,62.60
2017-09-01T22:06:38.170Z,62.70
2017-09-01T22:09:06.200Z,62.80
2017-09-01T22:11:33.805Z,62.50
2017-09-01T22:14:02.535Z,62.50
2017-09-01T22:16:33.109Z,62.50
2017-09-01T22:19:01.250Z,62.50
2017-09-01T22:21:28.870Z,62.60
2017-09-01T22:23:57.489Z,62.90
2017-09-01T22:26:25.704Z,63.20
2017-09-01T22:28:53.318Z,63.30
